CheckWX is a tool to help pilots better visualize weather data.  It is not intended as a substitute for an official pre-flight weather briefing.

13:03:03 UTC

FAEO METAR
Ermelo Airport
Ermelo, South Africa
Current

3 hours ago

FAEO 220935Z AUTO 05003KT //// // ////// 22/15 Q1028
Observed
Feb-22 @ 09:35 UTC
Wind
  • 050° at 3 KTS
Visibility
Temperature
22°C / 72°F
Dewpoint
15°C / 59°F
Humidity
65%
Altimeter
30.35" Hg
Pressure
1027.92 hPa
Previous

4 hours ago

FAEO 220842Z 27001KT 9999 BKN015 20/14 Q1028
Observed
Feb-22 @ 08:42 UTC
Wind
  • 270° at 1 KTS
Visibility
10,000+ meters
Flight Rules
MVFR
Cloud Levels
  • Broken at 1,500' AGL
Temperature
20°C / 68°F
Dewpoint
14°C / 57°F
Humidity
69%
Altimeter
30.35" Hg
Pressure
1027.92 hPa
Previous

5 hours ago

FAEO 220752Z AUTO 10003KT //// // ////// 17/14 Q1028
Observed
Feb-22 @ 07:52 UTC
Wind
  • 100° at 3 KTS
Visibility
Temperature
17°C / 63°F
Dewpoint
14°C / 57°F
Humidity
83%
Altimeter
30.35" Hg
Pressure
1027.92 hPa